sensor_id;sensor_type;location;lat;lon;timestamp;pressure;altitude;pressure_sealevel;temperature;humidity
7930;BME280;4010;42.698;23.124;2023-02-25T00:00:26;118349.16;;;-140.64;89.92
7930;BME280;4010;42.698;23.124;2023-02-25T00:02:55;118349.16;;;-140.64;90.41
7930;BME280;4010;42.698;23.124;2023-02-25T00:05:24;118349.16;;;-140.64;90.01
7930;BME280;4010;42.698;23.124;2023-02-25T00:07:52;118349.16;;;-140.64;90.11
7930;BME280;4010;42.698;23.124;2023-02-25T00:10:19;118349.16;;;-140.64;90.09
7930;BME280;4010;42.698;23.124;2023-02-25T00:12:45;118349.16;;;-140.64;89.56
7930;BME280;4010;42.698;23.124;2023-02-25T00:15:12;118349.16;;;-140.64;89.64
7930;BME280;4010;42.698;23.124;2023-02-25T00:17:40;118349.16;;;-140.64;90.11
7930;BME280;4010;42.698;23.124;2023-02-25T00:20:09;118349.16;;;-140.64;89.83
7930;BME280;4010;42.698;23.124;2023-02-25T00:22:39;118349.16;;;-140.64;89.54
7930;BME280;4010;42.698;23.124;2023-02-25T00:25:07;118349.16;;;-140.64;89.54
7930;BME280;4010;42.698;23.124;2023-02-25T00:27:34;118349.16;;;-140.64;89.86
7930;BME280;4010;42.698;23.124;2023-02-25T00:30:02;118349.16;;;-140.64;89.39
7930;BME280;4010;42.698;23.124;2023-02-25T00:32:30;118349.16;;;-140.64;89.28
7930;BME280;4010;42.698;23.124;2023-02-25T00:34:57;118349.16;;;-140.64;89.89
7930;BME280;4010;42.698;23.124;2023-02-25T00:37:23;118349.16;;;-140.64;89.49
7930;BME280;4010;42.698;23.124;2023-02-25T00:39:51;118349.16;;;-140.64;88.94
7930;BME280;4010;42.698;23.124;2023-02-25T00:42:18;118349.16;;;-140.64;88.76
7930;BME280;4010;42.698;23.124;2023-02-25T00:44:46;118349.16;;;-140.64;89.33
7930;BME280;4010;42.698;23.124;2023-02-25T00:47:16;118349.16;;;-140.64;88.61
7930;BME280;4010;42.698;23.124;2023-02-25T00:49:44;118349.16;;;-140.64;88.84
7930;BME280;4010;42.698;23.124;2023-02-25T00:52:11;118349.16;;;-140.64;88.74
7930;BME280;4010;42.698;23.124;2023-02-25T00:54:38;118349.16;;;-140.64;88.44
7930;BME280;4010;42.698;23.124;2023-02-25T00:57:06;118349.16;;;-140.64;88.06
7930;BME280;4010;42.698;23.124;2023-02-25T00:59:33;118349.16;;;-140.64;88.20
7930;BME280;4010;42.698;23.124;2023-02-25T01:02:00;118349.16;;;-140.64;87.72
7930;BME280;4010;42.698;23.124;2023-02-25T01:04:27;118349.16;;;-140.64;87.64
7930;BME280;4010;42.698;23.124;2023-02-25T01:06:54;118349.16;;;-140.64;87.70
7930;BME280;4010;42.698;23.124;2023-02-25T01:09:20;118349.16;;;-140.64;87.48
7930;BME280;4010;42.698;23.124;2023-02-25T01:11:48;118349.16;;;-140.64;87.36
7930;BME280;4010;42.698;23.124;2023-02-25T01:14:18;118349.16;;;-140.64;87.53
7930;BME280;4010;42.698;23.124;2023-02-25T01:16:46;118349.16;;;-140.64;87.19
7930;BME280;4010;42.698;23.124;2023-02-25T01:19:16;118349.16;;;-140.64;87.04
7930;BME280;4010;42.698;23.124;2023-02-25T01:21:45;118349.16;;;-140.64;86.68
7930;BME280;4010;42.698;23.124;2023-02-25T01:24:15;118349.16;;;-140.64;86.92
7930;BME280;4010;42.698;23.124;2023-02-25T01:26:44;118349.16;;;-140.64;86.63
7930;BME280;4010;42.698;23.124;2023-02-25T01:29:13;118349.16;;;-140.64;86.45
7930;BME280;4010;42.698;23.124;2023-02-25T01:31:43;118349.16;;;-140.64;86.49
7930;BME280;4010;42.698;23.124;2023-02-25T01:34:13;118349.16;;;-140.64;86.03
7930;BME280;4010;42.698;23.124;2023-02-25T01:36:41;118349.16;;;-140.64;85.88
7930;BME280;4010;42.698;23.124;2023-02-25T01:39:08;118349.16;;;-140.64;85.70
7930;BME280;4010;42.698;23.124;2023-02-25T01:41:36;118349.16;;;-140.64;85.59
7930;BME280;4010;42.698;23.124;2023-02-25T01:44:05;118349.16;;;-140.64;85.38
7930;BME280;4010;42.698;23.124;2023-02-25T01:46:32;118349.16;;;-140.64;84.79
7930;BME280;4010;42.698;23.124;2023-02-25T01:49:04;118349.16;;;-140.64;84.91
7930;BME280;4010;42.698;23.124;2023-02-25T01:51:33;118349.16;;;-140.64;84.65
7930;BME280;4010;42.698;23.124;2023-02-25T01:54:03;118349.16;;;-140.64;84.76
7930;BME280;4010;42.698;23.124;2023-02-25T01:56:31;118349.16;;;-140.64;84.60
7930;BME280;4010;42.698;23.124;2023-02-25T01:58:59;118349.16;;;-140.64;84.56
7930;BME280;4010;42.698;23.124;2023-02-25T02:01:28;118349.16;;;-140.64;84.35
7930;BME280;4010;42.698;23.124;2023-02-25T02:03:57;118349.16;;;-140.64;84.46
7930;BME280;4010;42.698;23.124;2023-02-25T02:06:27;118349.16;;;-140.64;84.56
7930;BME280;4010;42.698;23.124;2023-02-25T02:08:57;118349.16;;;-140.64;84.86
7930;BME280;4010;42.698;23.124;2023-02-25T02:11:24;118349.16;;;-140.64;84.46
7930;BME280;4010;42.698;23.124;2023-02-25T02:13:53;118349.16;;;-140.64;84.92
7930;BME280;4010;42.698;23.124;2023-02-25T02:19:25;118349.16;;;-140.64;84.85
7930;BME280;4010;42.698;23.124;2023-02-25T02:22:01;118349.16;;;-140.64;85.20
7930;BME280;4010;42.698;23.124;2023-02-25T02:24:59;118349.16;;;-140.64;85.21
7930;BME280;4010;42.698;23.124;2023-02-25T02:27:39;118349.16;;;-140.64;85.27
7930;BME280;4010;42.698;23.124;2023-02-25T02:30:39;118349.16;;;-140.64;85.31
7930;BME280;4010;42.698;23.124;2023-02-25T02:33:15;118349.16;;;-140.64;85.02
7930;BME280;4010;42.698;23.124;2023-02-25T02:35:48;118349.16;;;-140.64;84.95
7930;BME280;4010;42.698;23.124;2023-02-25T02:38:24;118349.16;;;-140.64;84.72
7930;BME280;4010;42.698;23.124;2023-02-25T02:41:04;118349.16;;;-140.64;85.18
7930;BME280;4010;42.698;23.124;2023-02-25T02:43:37;118349.16;;;-140.64;85.10
7930;BME280;4010;42.698;23.124;2023-02-25T02:46:09;118349.16;;;-140.64;85.30
7930;BME280;4010;42.698;23.124;2023-02-25T02:48:44;118349.16;;;-140.64;85.30
7930;BME280;4010;42.698;23.124;2023-02-25T02:51:16;118349.16;;;-140.64;85.38
7930;BME280;4010;42.698;23.124;2023-02-25T02:53:49;118349.16;;;-140.64;85.59
7930;BME280;4010;42.698;23.124;2023-02-25T02:56:17;118349.16;;;-140.64;86.19
7930;BME280;4010;42.698;23.124;2023-02-25T02:58:47;118349.16;;;-140.64;85.74
7930;BME280;4010;42.698;23.124;2023-02-25T03:01:20;118349.16;;;-140.64;85.99
7930;BME280;4010;42.698;23.124;2023-02-25T03:03:52;118349.16;;;-140.64;85.90
7930;BME280;4010;42.698;23.124;2023-02-25T03:06:26;118349.16;;;-140.64;85.98
7930;BME280;4010;42.698;23.124;2023-02-25T03:08:59;118349.16;;;-140.64;85.73
7930;BME280;4010;42.698;23.124;2023-02-25T03:11:27;118349.16;;;-140.64;85.72
7930;BME280;4010;42.698;23.124;2023-02-25T03:13:54;118349.16;;;-140.64;85.59
7930;BME280;4010;42.698;23.124;2023-02-25T03:16:25;118349.16;;;-140.64;86.27
7930;BME280;4010;42.698;23.124;2023-02-25T03:18:57;118349.16;;;-140.64;86.47
7930;BME280;4010;42.698;23.124;2023-02-25T03:21:27;118349.16;;;-140.64;86.43
7930;BME280;4010;42.698;23.124;2023-02-25T03:23:58;118349.16;;;-140.64;86.12
7930;BME280;4010;42.698;23.124;2023-02-25T03:26:28;118349.16;;;-140.64;86.26
7930;BME280;4010;42.698;23.124;2023-02-25T03:28:55;118349.16;;;-140.64;86.64
7930;BME280;4010;42.698;23.124;2023-02-25T03:31:25;118349.16;;;-140.64;86.83
7930;BME280;4010;42.698;23.124;2023-02-25T03:33:58;118349.16;;;-140.64;87.21
7930;BME280;4010;42.698;23.124;2023-02-25T03:36:30;118349.16;;;-140.64;87.00
7930;BME280;4010;42.698;23.124;2023-02-25T03:39:02;118349.16;;;-140.64;87.83
7930;BME280;4010;42.698;23.124;2023-02-25T03:41:35;118349.16;;;-140.64;87.53
7930;BME280;4010;42.698;23.124;2023-02-25T03:44:05;118349.16;;;-140.64;87.53
7930;BME280;4010;42.698;23.124;2023-02-25T03:46:34;118349.16;;;-140.64;87.05
7930;BME280;4010;42.698;23.124;2023-02-25T03:49:04;118349.16;;;-140.64;87.36
7930;BME280;4010;42.698;23.124;2023-02-25T03:51:33;118349.16;;;-140.64;87.68
7930;BME280;4010;42.698;23.124;2023-02-25T03:54:00;118349.16;;;-140.64;87.87
7930;BME280;4010;42.698;23.124;2023-02-25T03:56:28;118349.16;;;-140.64;87.90
7930;BME280;4010;42.698;23.124;2023-02-25T03:58:55;118349.16;;;-140.64;88.20
7930;BME280;4010;42.698;23.124;2023-02-25T04:01:24;118349.16;;;-140.64;88.14
7930;BME280;4010;42.698;23.124;2023-02-25T04:03:51;118349.16;;;-140.64;88.09
7930;BME280;4010;42.698;23.124;2023-02-25T04:06:21;118349.16;;;-140.64;87.79
7930;BME280;4010;42.698;23.124;2023-02-25T04:08:49;118349.16;;;-140.64;87.64
7930;BME280;4010;42.698;23.124;2023-02-25T04:11:15;118349.16;;;-140.64;87.37
7930;BME280;4010;42.698;23.124;2023-02-25T04:13:42;118349.16;;;-140.64;87.61
7930;BME280;4010;42.698;23.124;2023-02-25T04:16:09;118349.16;;;-140.64;88.21
7930;BME280;4010;42.698;23.124;2023-02-25T04:18:35;118349.16;;;-140.64;87.97
7930;BME280;4010;42.698;23.124;2023-02-25T04:21:04;118349.16;;;-140.64;88.12
7930;BME280;4010;42.698;23.124;2023-02-25T04:23:32;118349.16;;;-140.64;87.92
7930;BME280;4010;42.698;23.124;2023-02-25T04:25:59;118349.16;;;-140.64;86.98
7930;BME280;4010;42.698;23.124;2023-02-25T04:28:25;118349.16;;;-140.64;87.24
7930;BME280;4010;42.698;23.124;2023-02-25T04:30:52;118349.16;;;-140.64;87.08
7930;BME280;4010;42.698;23.124;2023-02-25T04:33:19;118349.16;;;-140.64;86.80
7930;BME280;4010;42.698;23.124;2023-02-25T04:35:45;118349.16;;;-140.64;86.38
7930;BME280;4010;42.698;23.124;2023-02-25T04:38:12;118349.16;;;-140.64;86.38
7930;BME280;4010;42.698;23.124;2023-02-25T04:40:40;118349.16;;;-140.64;86.80
7930;BME280;4010;42.698;23.124;2023-02-25T04:43:07;118349.16;;;-140.64;86.80
7930;BME280;4010;42.698;23.124;2023-02-25T04:45:34;118349.16;;;-140.64;86.93
7930;BME280;4010;42.698;23.124;2023-02-25T04:48:00;118349.16;;;-140.64;86.45
7930;BME280;4010;42.698;23.124;2023-02-25T04:50:27;118349.16;;;-140.64;86.59
7930;BME280;4010;42.698;23.124;2023-02-25T04:52:54;118349.16;;;-140.64;86.24
7930;BME280;4010;42.698;23.124;2023-02-25T04:55:22;118349.16;;;-140.64;86.12
7930;BME280;4010;42.698;23.124;2023-02-25T04:57:50;118349.16;;;-140.64;86.19
7930;BME280;4010;42.698;23.124;2023-02-25T05:00:21;118349.16;;;-140.64;85.75
7930;BME280;4010;42.698;23.124;2023-02-25T05:02:49;118349.16;;;-140.64;85.63
7930;BME280;4010;42.698;23.124;2023-02-25T05:05:16;118349.16;;;-140.64;85.33
7930;BME280;4010;42.698;23.124;2023-02-25T05:07:43;118349.16;;;-140.64;85.72
7930;BME280;4010;42.698;23.124;2023-02-25T05:10:11;118349.16;;;-140.64;85.35
7930;BME280;4010;42.698;23.124;2023-02-25T05:12:39;118349.16;;;-140.64;85.07
7930;BME280;4010;42.698;23.124;2023-02-25T05:15:08;118349.16;;;-140.64;84.75
7930;BME280;4010;42.698;23.124;2023-02-25T05:17:35;118349.16;;;-140.64;84.17
7930;BME280;4010;42.698;23.124;2023-02-25T05:20:03;118349.16;;;-140.64;84.83
7930;BME280;4010;42.698;23.124;2023-02-25T05:22:36;118349.16;;;-140.64;84.57
7930;BME280;4010;42.698;23.124;2023-02-25T05:25:03;118349.16;;;-140.64;84.55
7930;BME280;4010;42.698;23.124;2023-02-25T05:27:29;118349.16;;;-140.64;84.57
7930;BME280;4010;42.698;23.124;2023-02-25T05:29:56;118349.16;;;-140.64;83.90
7930;BME280;4010;42.698;23.124;2023-02-25T05:32:24;118349.16;;;-140.64;83.74
7930;BME280;4010;42.698;23.124;2023-02-25T05:34:51;118349.16;;;-140.64;83.41
7930;BME280;4010;42.698;23.124;2023-02-25T05:37:17;118349.16;;;-140.64;83.94
7930;BME280;4010;42.698;23.124;2023-02-25T05:39:44;118349.16;;;-140.64;83.67
7930;BME280;4010;42.698;23.124;2023-02-25T05:42:11;118349.16;;;-140.64;84.39
7930;BME280;4010;42.698;23.124;2023-02-25T05:44:37;118349.16;;;-140.64;84.06
7930;BME280;4010;42.698;23.124;2023-02-25T05:47:04;118349.16;;;-140.64;84.16
7930;BME280;4010;42.698;23.124;2023-02-25T05:49:33;118349.16;;;-140.64;84.63
7930;BME280;4010;42.698;23.124;2023-02-25T05:51:59;118349.16;;;-140.64;84.83
7930;BME280;4010;42.698;23.124;2023-02-25T05:54:26;118349.16;;;-140.64;84.53
7930;BME280;4010;42.698;23.124;2023-02-25T05:56:53;118349.16;;;-140.64;84.93
7930;BME280;4010;42.698;23.124;2023-02-25T05:59:19;118349.16;;;-140.64;84.29
7930;BME280;4010;42.698;23.124;2023-02-25T06:01:46;118349.16;;;-140.64;84.19
7930;BME280;4010;42.698;23.124;2023-02-25T06:04:13;118349.16;;;-140.64;84.18
7930;BME280;4010;42.698;23.124;2023-02-25T06:06:41;118349.16;;;-140.64;84.27
7930;BME280;4010;42.698;23.124;2023-02-25T06:09:07;118349.16;;;-140.64;83.78
7930;BME280;4010;42.698;23.124;2023-02-25T06:11:34;118349.16;;;-140.64;84.06
7930;BME280;4010;42.698;23.124;2023-02-25T06:14:01;118349.16;;;-140.64;83.46
7930;BME280;4010;42.698;23.124;2023-02-25T06:16:28;118349.16;;;-140.64;82.33
7930;BME280;4010;42.698;23.124;2023-02-25T06:18:56;118349.16;;;-140.64;81.79
7930;BME280;4010;42.698;23.124;2023-02-25T06:21:24;118349.16;;;-140.64;81.43
7930;BME280;4010;42.698;23.124;2023-02-25T06:23:52;118349.16;;;-140.64;80.84
7930;BME280;4010;42.698;23.124;2023-02-25T06:26:18;118349.16;;;-140.64;81.07
7930;BME280;4010;42.698;23.124;2023-02-25T06:28:45;118349.16;;;-140.64;81.12
7930;BME280;4010;42.698;23.124;2023-02-25T06:31:14;118349.16;;;-140.64;80.92
7930;BME280;4010;42.698;23.124;2023-02-25T06:33:41;118349.16;;;-140.64;80.53
7930;BME280;4010;42.698;23.124;2023-02-25T06:36:09;118349.16;;;-140.64;80.29
7930;BME280;4010;42.698;23.124;2023-02-25T06:38:36;118349.16;;;-140.64;79.48
7930;BME280;4010;42.698;23.124;2023-02-25T06:41:06;118349.16;;;-140.64;78.81
7930;BME280;4010;42.698;23.124;2023-02-25T06:43:34;118349.16;;;-140.64;78.60
7930;BME280;4010;42.698;23.124;2023-02-25T06:46:03;118349.16;;;-140.64;78.64
7930;BME280;4010;42.698;23.124;2023-02-25T06:48:30;118349.16;;;-140.64;78.51
7930;BME280;4010;42.698;23.124;2023-02-25T06:50:57;118349.16;;;-140.64;77.86
7930;BME280;4010;42.698;23.124;2023-02-25T06:53:24;118349.16;;;-140.64;77.94
7930;BME280;4010;42.698;23.124;2023-02-25T06:55:50;118349.16;;;-140.64;77.42
7930;BME280;4010;42.698;23.124;2023-02-25T06:58:18;118349.16;;;-140.64;77.30
7930;BME280;4010;42.698;23.124;2023-02-25T07:00:45;118349.16;;;-140.64;77.00
7930;BME280;4010;42.698;23.124;2023-02-25T07:03:12;118349.16;;;-140.64;77.05
7930;BME280;4010;42.698;23.124;2023-02-25T07:05:39;118349.16;;;-140.64;76.93
7930;BME280;4010;42.698;23.124;2023-02-25T07:08:06;118349.16;;;-140.64;76.45
7930;BME280;4010;42.698;23.124;2023-02-25T07:10:33;118349.16;;;-140.64;76.67
7930;BME280;4010;42.698;23.124;2023-02-25T07:13:00;118349.16;;;-140.64;76.43
7930;BME280;4010;42.698;23.124;2023-02-25T07:15:28;118349.16;;;-140.64;75.80
7930;BME280;4010;42.698;23.124;2023-02-25T07:17:55;118349.16;;;-140.64;75.29
7930;BME280;4010;42.698;23.124;2023-02-25T07:20:22;118349.16;;;-140.64;75.10
7930;BME280;4010;42.698;23.124;2023-02-25T07:22:48;118349.16;;;-140.64;74.92
7930;BME280;4010;42.698;23.124;2023-02-25T07:25:15;118349.16;;;-140.64;74.58
7930;BME280;4010;42.698;23.124;2023-02-25T07:27:43;118349.16;;;-140.64;73.54
7930;BME280;4010;42.698;23.124;2023-02-25T07:30:11;118349.16;;;-140.64;73.28
7930;BME280;4010;42.698;23.124;2023-02-25T07:32:40;118349.16;;;-140.64;72.71
7930;BME280;4010;42.698;23.124;2023-02-25T07:35:08;118349.16;;;-140.64;72.05
7930;BME280;4010;42.698;23.124;2023-02-25T07:37:35;118349.16;;;-140.64;72.10
7930;BME280;4010;42.698;23.124;2023-02-25T07:40:03;118349.16;;;-140.64;72.10
7930;BME280;4010;42.698;23.124;2023-02-25T07:42:37;118349.16;;;-140.64;71.14
7930;BME280;4010;42.698;23.124;2023-02-25T07:45:05;118349.16;;;-140.64;70.76
7930;BME280;4010;42.698;23.124;2023-02-25T07:47:32;118349.16;;;-140.64;70.45
7930;BME280;4010;42.698;23.124;2023-02-25T07:50:00;118349.16;;;-140.64;69.99
7930;BME280;4010;42.698;23.124;2023-02-25T07:52:27;118349.16;;;-140.64;69.67
7930;BME280;4010;42.698;23.124;2023-02-25T07:54:54;118349.16;;;-140.64;69.56
7930;BME280;4010;42.698;23.124;2023-02-25T07:57:21;118349.16;;;-140.64;69.54
7930;BME280;4010;42.698;23.124;2023-02-25T07:59:48;118349.16;;;-140.64;69.02
7930;BME280;4010;42.698;23.124;2023-02-25T08:02:14;118349.16;;;-140.64;68.56
7930;BME280;4010;42.698;23.124;2023-02-25T08:04:41;118349.16;;;-140.64;67.76
7930;BME280;4010;42.698;23.124;2023-02-25T08:07:09;118349.16;;;-140.64;66.60
7930;BME280;4010;42.698;23.124;2023-02-25T08:09:36;118349.16;;;-140.64;66.77
7930;BME280;4010;42.698;23.124;2023-02-25T08:12:03;118349.16;;;-140.64;66.67
7930;BME280;4010;42.698;23.124;2023-02-25T08:14:30;118349.16;;;-140.64;65.74
7930;BME280;4010;42.698;23.124;2023-02-25T08:16:57;118349.16;;;-140.64;64.10
7930;BME280;4010;42.698;23.124;2023-02-25T08:19:26;118349.16;;;-140.64;63.51
7930;BME280;4010;42.698;23.124;2023-02-25T08:21:52;118349.16;;;-140.64;62.48
7930;BME280;4010;42.698;23.124;2023-02-25T08:24:29;118349.16;;;-140.64;62.52
7930;BME280;4010;42.698;23.124;2023-02-25T08:26:59;118349.16;;;-140.64;62.27
7930;BME280;4010;42.698;23.124;2023-02-25T08:29:26;118349.16;;;-140.64;61.58
7930;BME280;4010;42.698;23.124;2023-02-25T08:31:53;118349.16;;;-140.64;61.03
7930;BME280;4010;42.698;23.124;2023-02-25T08:34:22;118349.16;;;-140.64;60.34
7930;BME280;4010;42.698;23.124;2023-02-25T08:36:48;118349.16;;;-140.64;60.76
7930;BME280;4010;42.698;23.124;2023-02-25T08:39:15;118349.16;;;-140.64;60.43
7930;BME280;4010;42.698;23.124;2023-02-25T08:41:44;118349.16;;;-140.64;60.54
7930;BME280;4010;42.698;23.124;2023-02-25T08:44:11;118349.16;;;-140.64;59.18
7930;BME280;4010;42.698;23.124;2023-02-25T08:46:37;118349.16;;;-140.64;58.93
7930;BME280;4010;42.698;23.124;2023-02-25T08:49:05;118349.16;;;-140.64;58.52
7930;BME280;4010;42.698;23.124;2023-02-25T08:51:32;118349.16;;;-140.64;58.75
7930;BME280;4010;42.698;23.124;2023-02-25T08:54:00;118349.16;;;-140.64;58.54
7930;BME280;4010;42.698;23.124;2023-02-25T08:56:28;118349.16;;;-140.64;58.47
7930;BME280;4010;42.698;23.124;2023-02-25T08:58:58;118349.16;;;-140.64;58.30
7930;BME280;4010;42.698;23.124;2023-02-25T09:01:24;118349.16;;;-140.64;58.27
7930;BME280;4010;42.698;23.124;2023-02-25T09:04:05;118349.16;;;-140.64;59.42
7930;BME280;4010;42.698;23.124;2023-02-25T09:06:31;118349.16;;;-140.64;59.76
7930;BME280;4010;42.698;23.124;2023-02-25T09:08:59;118349.16;;;-140.64;59.67
7930;BME280;4010;42.698;23.124;2023-02-25T09:11:26;118349.16;;;-140.64;60.18
7930;BME280;4010;42.698;23.124;2023-02-25T09:17:13;118349.16;;;-140.64;60.84
7930;BME280;4010;42.698;23.124;2023-02-25T09:19:40;118349.16;;;-140.64;61.57
7930;BME280;4010;42.698;23.124;2023-02-25T09:22:08;118349.16;;;-140.64;60.84
7930;BME280;4010;42.698;23.124;2023-02-25T09:24:35;118349.16;;;-140.64;61.14
7930;BME280;4010;42.698;23.124;2023-02-25T09:27:03;118349.16;;;-140.64;60.44
7930;BME280;4010;42.698;23.124;2023-02-25T09:29:32;118349.16;;;-140.64;60.52
7930;BME280;4010;42.698;23.124;2023-02-25T09:32:02;118349.16;;;-140.64;60.55
7930;BME280;4010;42.698;23.124;2023-02-25T09:34:31;118349.16;;;-140.64;60.13
7930;BME280;4010;42.698;23.124;2023-02-25T09:36:59;118349.16;;;-140.64;60.03
7930;BME280;4010;42.698;23.124;2023-02-25T09:39:26;118349.16;;;-140.64;59.79
7930;BME280;4010;42.698;23.124;2023-02-25T09:41:55;118349.16;;;-140.64;59.67
7930;BME280;4010;42.698;23.124;2023-02-25T09:44:27;118349.16;;;-140.64;59.43
7930;BME280;4010;42.698;23.124;2023-02-25T09:46:57;118349.16;;;-140.64;59.87
7930;BME280;4010;42.698;23.124;2023-02-25T09:49:29;118349.16;;;-140.64;58.98
7930;BME280;4010;42.698;23.124;2023-02-25T09:52:02;118349.16;;;-140.64;58.68
7930;BME280;4010;42.698;23.124;2023-02-25T09:54:36;118349.16;;;-140.64;57.77
7930;BME280;4010;42.698;23.124;2023-02-25T09:57:05;118349.16;;;-140.64;57.16
7930;BME280;4010;42.698;23.124;2023-02-25T09:59:32;118349.16;;;-140.64;57.45
7930;BME280;4010;42.698;23.124;2023-02-25T10:02:12;118349.16;;;-140.64;56.93
7930;BME280;4010;42.698;23.124;2023-02-25T10:04:52;118349.16;;;-140.64;56.42
7930;BME280;4010;42.698;23.124;2023-02-25T10:07:25;118349.16;;;-140.64;55.61
7930;BME280;4010;42.698;23.124;2023-02-25T10:09:58;118349.16;;;-140.64;54.99
7930;BME280;4010;42.698;23.124;2023-02-25T10:12:44;118349.16;;;-140.64;54.63
7930;BME280;4010;42.698;23.124;2023-02-25T10:15:41;118349.16;;;-140.64;54.40
7930;BME280;4010;42.698;23.124;2023-02-25T10:18:18;118349.16;;;-140.64;54.19
7930;BME280;4010;42.698;23.124;2023-02-25T10:21:07;118349.16;;;-140.64;53.74
7930;BME280;4010;42.698;23.124;2023-02-25T10:23:52;118349.16;;;-140.64;53.50
7930;BME280;4010;42.698;23.124;2023-02-25T10:26:23;118349.16;;;-140.64;52.70
7930;BME280;4010;42.698;23.124;2023-02-25T10:28:53;118349.16;;;-140.64;52.57
7930;BME280;4010;42.698;23.124;2023-02-25T10:31:22;118349.16;;;-140.64;51.93
7930;BME280;4010;42.698;23.124;2023-02-25T10:33:50;118349.16;;;-140.64;52.39
7930;BME280;4010;42.698;23.124;2023-02-25T10:36:20;118349.16;;;-140.64;52.61
7930;BME280;4010;42.698;23.124;2023-02-25T10:38:50;118349.16;;;-140.64;52.36
7930;BME280;4010;42.698;23.124;2023-02-25T10:41:19;118349.16;;;-140.64;51.98
7930;BME280;4010;42.698;23.124;2023-02-25T10:43:48;118349.16;;;-140.64;51.21
7930;BME280;4010;42.698;23.124;2023-02-25T10:46:18;118349.16;;;-140.64;51.36
7930;BME280;4010;42.698;23.124;2023-02-25T10:48:54;118349.16;;;-140.64;51.18
7930;BME280;4010;42.698;23.124;2023-02-25T10:51:23;118349.16;;;-140.64;51.03
7930;BME280;4010;42.698;23.124;2023-02-25T10:54:05;118349.16;;;-140.64;50.16
7930;BME280;4010;42.698;23.124;2023-02-25T10:56:38;118349.16;;;-140.64;50.02
7930;BME280;4010;42.698;23.124;2023-02-25T10:59:24;118349.16;;;-140.64;49.32
7930;BME280;4010;42.698;23.124;2023-02-25T11:01:53;118349.16;;;-140.64;49.24
7930;BME280;4010;42.698;23.124;2023-02-25T11:04:23;118349.16;;;-140.64;48.85
7930;BME280;4010;42.698;23.124;2023-02-25T11:06:50;118349.16;;;-140.64;48.75
7930;BME280;4010;42.698;23.124;2023-02-25T11:09:48;118349.16;;;-140.64;48.34
7930;BME280;4010;42.698;23.124;2023-02-25T11:12:17;118349.16;;;-140.64;48.28
7930;BME280;4010;42.698;23.124;2023-02-25T11:14:44;118349.16;;;-140.64;48.28
7930;BME280;4010;42.698;23.124;2023-02-25T11:17:14;118349.16;;;-140.64;48.16
7930;BME280;4010;42.698;23.124;2023-02-25T11:19:46;118349.16;;;-140.64;48.09
7930;BME280;4010;42.698;23.124;2023-02-25T11:22:16;118349.16;;;-140.64;48.54
7930;BME280;4010;42.698;23.124;2023-02-25T11:24:54;118349.16;;;-140.64;48.04
7930;BME280;4010;42.698;23.124;2023-02-25T11:27:31;118349.16;;;-140.64;47.75
7930;BME280;4010;42.698;23.124;2023-02-25T11:30:02;118349.16;;;-140.64;48.19
7930;BME280;4010;42.698;23.124;2023-02-25T11:32:30;118349.16;;;-140.64;47.42
7930;BME280;4010;42.698;23.124;2023-02-25T11:35:00;118349.16;;;-140.64;47.80
7930;BME280;4010;42.698;23.124;2023-02-25T11:37:35;118349.16;;;-140.64;47.24
7930;BME280;4010;42.698;23.124;2023-02-25T11:40:20;118349.16;;;-140.64;46.54
7930;BME280;4010;42.698;23.124;2023-02-25T11:42:59;118349.16;;;-140.64;46.77
7930;BME280;4010;42.698;23.124;2023-02-25T11:45:28;118349.16;;;-140.64;46.37
7930;BME280;4010;42.698;23.124;2023-02-25T11:47:56;118349.16;;;-140.64;46.38
7930;BME280;4010;42.698;23.124;2023-02-25T11:50:25;118349.16;;;-140.64;46.44
7930;BME280;4010;42.698;23.124;2023-02-25T11:53:00;118349.16;;;-140.64;46.43
7930;BME280;4010;42.698;23.124;2023-02-25T11:55:44;118349.16;;;-140.64;46.43
7930;BME280;4010;42.698;23.124;2023-02-25T11:58:22;118349.16;;;-140.64;46.58
7930;BME280;4010;42.698;23.124;2023-02-25T12:00:57;118349.16;;;-140.64;46.61
7930;BME280;4010;42.698;23.124;2023-02-25T12:03:37;118349.16;;;-140.64;46.59
7930;BME280;4010;42.698;23.124;2023-02-25T12:06:17;118349.16;;;-140.64;46.81
7930;BME280;4010;42.698;23.124;2023-02-25T12:09:26;118349.16;;;-140.64;46.97
7930;BME280;4010;42.698;23.124;2023-02-25T12:12:31;118349.16;;;-140.64;46.89
7930;BME280;4010;42.698;23.124;2023-02-25T12:15:23;118349.16;;;-140.64;47.42
7930;BME280;4010;42.698;23.124;2023-02-25T12:18:10;118349.16;;;-140.64;47.37
7930;BME280;4010;42.698;23.124;2023-02-25T12:21:15;118349.16;;;-140.64;47.64
7930;BME280;4010;42.698;23.124;2023-02-25T12:24:33;118349.16;;;-140.64;47.12
7930;BME280;4010;42.698;23.124;2023-02-25T12:27:42;118349.16;;;-140.64;47.19
7930;BME280;4010;42.698;23.124;2023-02-25T12:30:32;118349.16;;;-140.64;47.06
7930;BME280;4010;42.698;23.124;2023-02-25T12:33:12;118349.16;;;-140.64;46.86
7930;BME280;4010;42.698;23.124;2023-02-25T12:35:51;118349.16;;;-140.64;46.79
7930;BME280;4010;42.698;23.124;2023-02-25T12:41:34;118349.16;;;-140.64;46.39
7930;BME280;4010;42.698;23.124;2023-02-25T12:44:25;118349.16;;;-140.64;46.13
7930;BME280;4010;42.698;23.124;2023-02-25T12:47:14;118349.16;;;-140.64;46.43
7930;BME280;4010;42.698;23.124;2023-02-25T12:49:58;118349.16;;;-140.64;46.72
7930;BME280;4010;42.698;23.124;2023-02-25T12:52:35;118349.16;;;-140.64;46.29
7930;BME280;4010;42.698;23.124;2023-02-25T12:58:39;118349.16;;;-140.64;45.92
7930;BME280;4010;42.698;23.124;2023-02-25T13:01:31;118349.16;;;-140.64;46.14
7930;BME280;4010;42.698;23.124;2023-02-25T13:04:27;118349.16;;;-140.64;45.89
7930;BME280;4010;42.698;23.124;2023-02-25T13:07:16;118349.16;;;-140.64;45.29
7930;BME280;4010;42.698;23.124;2023-02-25T13:10:02;118349.16;;;-140.64;45.57
7930;BME280;4010;42.698;23.124;2023-02-25T13:12:47;118349.16;;;-140.64;45.40